sim
Sign-in with your pilot id or email,
or register
Callsign
Passwort

Schedule Details

Flight Number: RYR9822 (2)
Departure: Rome Ciampino Airport (LIRA) at 16:50
Arrival: Bratislava M. R. Stefanik Airport (LZIB) at 18:30
Route: Ryanair Passenger Schedule. Enter filed route here before submitting Pirep.

Weather Information
Getting current METAR information for LIRA 232050Z 08004KT 020V140 CAVOK 20/08 Q1016
Getting current METAR information for LZIB 232030Z 05003KT 360V080 CAVOK 13/10 Q1017

Schedule Frequency

Route Map